createdAt,value
2023-02-01T00:00:10.628Z,95.02
2023-02-01T00:02:51.137Z,94.85
2023-02-01T00:05:51.174Z,94.10
2023-02-01T00:08:23.031Z,93.73
2023-02-01T00:11:03.003Z,93.93
2023-02-01T00:13:34.686Z,93.60
2023-02-01T00:16:22.129Z,93.60
2023-02-01T00:18:51.613Z,93.53
2023-02-01T00:24:17.260Z,93.60
2023-02-01T00:26:46.774Z,93.59
2023-02-01T00:29:23.535Z,93.64
2023-02-01T00:31:53.460Z,93.64
2023-02-01T00:37:33.547Z,93.84
2023-02-01T00:40:01.982Z,94.00
2023-02-01T00:42:32.950Z,94.02
2023-02-01T00:45:04.884Z,94.06
2023-02-01T00:47:36.257Z,94.19
2023-02-01T00:50:07.491Z,94.38
2023-02-01T00:52:38.552Z,94.29
2023-02-01T00:55:08.066Z,94.26
2023-02-01T00:57:37.192Z,94.17
2023-02-01T01:00:07.208Z,94.34
2023-02-01T01:02:36.538Z,94.41
2023-02-01T01:05:09.020Z,94.59
2023-02-01T01:07:38.727Z,94.62
2023-02-01T01:10:10.671Z,94.59
2023-02-01T01:12:42.435Z,94.54
2023-02-01T01:15:13.496Z,94.51
2023-02-01T01:17:44.146Z,94.61
2023-02-01T01:20:16.042Z,94.52
2023-02-01T01:22:45.148Z,94.48
2023-02-01T01:25:15.360Z,94.68
2023-02-01T01:27:45.496Z,94.72
2023-02-01T01:30:14.471Z,94.78
2023-02-01T01:32:44.622Z,94.87
2023-02-01T01:35:13.887Z,95.04
2023-02-01T01:37:42.396Z,94.97
2023-02-01T01:40:13.299Z,95.12
2023-02-01T01:42:46.241Z,95.13
2023-02-01T01:45:30.531Z,94.97
2023-02-01T01:48:27.752Z,95.20
2023-02-01T01:51:00.101Z,95.33
2023-02-01T01:53:32.959Z,95.40
2023-02-01T01:56:01.984Z,95.23
2023-02-01T01:58:35.374Z,95.18
2023-02-01T02:01:07.485Z,95.18
2023-02-01T02:03:47.305Z,95.40
2023-02-01T02:06:33.834Z,95.26
2023-02-01T02:09:05.964Z,95.38
2023-02-01T02:11:35.633Z,95.36
2023-02-01T02:14:07.616Z,95.44
2023-02-01T02:17:12.770Z,95.40
2023-02-01T02:19:50.360Z,95.25
2023-02-01T02:22:55.406Z,95.01
2023-02-01T02:25:46.780Z,94.94
2023-02-01T02:28:31.497Z,94.87
2023-02-01T02:31:03.331Z,94.90
2023-02-01T02:33:37.203Z,94.81
2023-02-01T02:37:00.686Z,94.74
2023-02-01T02:39:29.340Z,94.88
2023-02-01T02:42:37.773Z,94.92
2023-02-01T02:45:32.966Z,94.95
2023-02-01T02:48:11.841Z,95.01
2023-02-01T02:51:07.011Z,94.97
2023-02-01T02:54:07.076Z,95.14
2023-02-01T02:56:53.983Z,95.13
2023-02-01T02:59:42.080Z,95.22
2023-02-01T03:02:29.680Z,95.37
2023-02-01T03:04:58.442Z,95.38
2023-02-01T03:07:56.427Z,95.50
2023-02-01T03:10:55.933Z,95.54
2023-02-01T03:13:40.233Z,95.21
2023-02-01T03:16:22.500Z,95.29
2023-02-01T03:19:02.022Z,95.15
2023-02-01T03:21:41.631Z,94.90
2023-02-01T03:24:14.308Z,94.94
2023-02-01T03:26:55.882Z,94.93
2023-02-01T03:29:28.537Z,94.94
2023-02-01T03:31:57.796Z,94.95
2023-02-01T03:34:26.648Z,94.90
2023-02-01T03:37:01.125Z,94.93
2023-02-01T03:40:01.092Z,94.71
2023-02-01T03:42:42.215Z,94.64
2023-02-01T03:45:17.952Z,94.64
2023-02-01T03:47:49.656Z,94.44
2023-02-01T03:50:21.336Z,94.47
2023-02-01T03:53:28.096Z,94.36
2023-02-01T03:56:00.979Z,94.30
2023-02-01T03:58:32.989Z,94.23
2023-02-01T04:01:02.164Z,94.15
2023-02-01T04:03:35.780Z,94.13
2023-02-01T04:06:04.380Z,94.38
2023-02-01T04:08:36.828Z,94.40
2023-02-01T04:11:05.437Z,94.34
2023-02-01T04:13:35.069Z,94.22
2023-02-01T04:16:03.756Z,94.37
2023-02-01T04:18:37.147Z,94.38
2023-02-01T04:21:05.586Z,94.26
2023-02-01T04:23:36.350Z,94.49
2023-02-01T04:26:05.589Z,94.42
2023-02-01T04:28:37.175Z,94.32
2023-02-01T04:31:08.286Z,94.39
2023-02-01T04:33:38.947Z,94.40
2023-02-01T04:36:07.529Z,94.41
2023-02-01T04:38:36.420Z,94.68
2023-02-01T04:41:05.627Z,94.59
2023-02-01T04:43:35.370Z,94.56
2023-02-01T04:46:03.828Z,94.60
2023-02-01T04:48:32.386Z,94.80
2023-02-01T04:51:01.189Z,94.82
2023-02-01T04:53:31.063Z,94.88
2023-02-01T04:56:03.504Z,94.73
2023-02-01T04:58:32.684Z,94.76
2023-02-01T05:01:05.963Z,94.80
2023-02-01T05:03:37.647Z,94.92
2023-02-01T05:06:07.029Z,94.95
2023-02-01T05:08:37.784Z,94.81
2023-02-01T05:11:07.402Z,94.75
2023-02-01T05:13:51.307Z,94.89
2023-02-01T05:16:20.217Z,94.93
2023-02-01T05:18:51.238Z,94.81
2023-02-01T05:21:21.421Z,94.92
2023-02-01T05:24:09.885Z,94.99
2023-02-01T05:26:41.999Z,95.09
2023-02-01T05:29:11.077Z,95.09
2023-02-01T05:31:39.715Z,95.03
2023-02-01T05:34:09.484Z,94.92
2023-02-01T05:36:40.455Z,94.84
2023-02-01T05:39:13.363Z,94.80
2023-02-01T05:41:42.494Z,94.63
2023-02-01T05:44:14.139Z,94.85
2023-02-01T05:46:45.505Z,95.09
2023-02-01T08:55:24.873Z,55.43
2023-02-01T08:57:53.749Z,54.91
2023-02-01T09:00:21.521Z,55.21
2023-02-01T09:02:48.970Z,54.79
2023-02-01T09:05:18.799Z,55.13
2023-02-01T09:07:47.496Z,54.83
2023-02-01T09:10:33.523Z,54.96
2023-02-01T09:13:03.648Z,55.97
2023-02-01T09:15:36.790Z,56.09
2023-02-01T09:18:04.949Z,56.38
2023-02-01T09:20:33.716Z,55.89
2023-02-01T09:23:02.702Z,53.84
2023-02-01T09:25:37.993Z,52.38
2023-02-01T09:28:07.268Z,50.75
2023-02-01T09:30:37.276Z,49.55
2023-02-01T09:33:05.176Z,47.40
2023-02-01T09:35:32.999Z,45.71
2023-02-01T09:38:00.515Z,43.50
2023-02-01T09:40:29.856Z,42.86
2023-02-01T09:43:20.596Z,41.61
2023-02-01T09:46:03.090Z,41.68
2023-02-01T09:48:37.607Z,41.63
2023-02-01T09:51:13.571Z,40.66
2023-02-01T09:53:45.389Z,40.33
2023-02-01T09:56:15.958Z,39.92
2023-02-01T09:58:46.165Z,40.04
2023-02-01T10:01:32.930Z,39.33
2023-02-01T10:04:08.327Z,38.12
2023-02-01T10:06:48.987Z,37.85
2023-02-01T10:09:34.569Z,38.13
2023-02-01T10:12:21.403Z,38.14
2023-02-01T10:15:22.872Z,38.88
2023-02-01T10:18:12.869Z,40.64
2023-02-01T10:20:56.220Z,42.51
2023-02-01T10:24:03.546Z,44.21
2023-02-01T10:26:43.547Z,45.69
2023-02-01T10:29:23.204Z,47.05
2023-02-01T10:31:53.267Z,47.58
2023-02-01T10:34:29.645Z,47.66
2023-02-01T10:37:13.431Z,47.92
2023-02-01T10:39:41.438Z,47.81
2023-02-01T10:42:12.515Z,47.70
2023-02-01T10:44:45.887Z,48.15
2023-02-01T10:47:19.992Z,48.86
2023-02-01T10:50:01.533Z,49.25
2023-02-01T10:52:34.731Z,50.05
2023-02-01T10:55:31.388Z,50.90
2023-02-01T10:58:01.949Z,51.17
2023-02-01T11:00:44.345Z,51.86
2023-02-01T11:03:33.695Z,52.53
2023-02-01T11:06:10.974Z,52.35
2023-02-01T11:09:02.550Z,53.39
2023-02-01T11:11:34.413Z,54.11
2023-02-01T11:14:20.895Z,55.17
2023-02-01T11:16:54.734Z,55.80
2023-02-01T11:19:24.233Z,56.74
2023-02-01T11:21:54.323Z,57.37
2023-02-01T11:24:35.379Z,57.90
2023-02-01T11:27:07.144Z,58.70
2023-02-01T11:29:43.194Z,59.60
2023-02-01T11:32:10.933Z,60.43
2023-02-01T11:34:53.549Z,60.93
2023-02-01T11:37:35.093Z,61.72
2023-02-01T11:40:20.720Z,62.27
2023-02-01T11:43:00.196Z,62.38
2023-02-01T11:45:29.880Z,62.88
2023-02-01T11:47:58.836Z,63.52
2023-02-01T11:50:36.519Z,64.07
2023-02-01T11:53:39.127Z,65.43
2023-02-01T11:56:09.770Z,66.85
2023-02-01T11:59:18.870Z,67.99
2023-02-01T12:02:11.268Z,69.69
2023-02-01T12:04:52.260Z,70.69
2023-02-01T12:07:57.408Z,71.57
2023-02-01T12:10:51.988Z,72.34
2023-02-01T12:13:32.729Z,72.79
2023-02-01T12:16:24.097Z,73.80
2023-02-01T12:22:27.748Z,74.64
2023-02-01T12:25:24.508Z,75.03
2023-02-01T12:28:14.073Z,75.72
2023-02-01T12:31:08.353Z,76.31
2023-02-01T12:33:48.899Z,76.83
2023-02-01T12:37:08.789Z,77.68
2023-02-01T12:39:42.850Z,78.09
2023-02-01T12:42:32.823Z,78.11
2023-02-01T12:45:12.154Z,78.40
2023-02-01T12:47:47.824Z,79.00
2023-02-01T12:50:38.773Z,78.93
2023-02-01T12:53:21.134Z,79.45
2023-02-01T12:55:56.569Z,79.38
2023-02-01T12:58:49.367Z,79.86
2023-02-01T13:01:23.130Z,80.17
2023-02-01T13:04:12.029Z,80.16
2023-02-01T13:07:08.926Z,80.77
2023-02-01T13:09:47.636Z,81.02
2023-02-01T13:12:30.608Z,81.36
2023-02-01T13:15:11.870Z,81.56
2023-02-01T13:17:40.991Z,81.50
2023-02-01T13:20:26.377Z,81.83
2023-02-01T13:22:58.415Z,82.48
2023-02-01T13:26:00.544Z,82.57
2023-02-01T13:28:41.198Z,82.70
2023-02-01T13:31:20.768Z,82.86
2023-02-01T13:34:26.606Z,83.35
2023-02-01T13:37:30.121Z,83.34
2023-02-01T13:40:08.971Z,83.45
2023-02-01T17:59:19.739Z,100.00
2023-02-01T18:01:49.766Z,100.00
2023-02-01T18:04:16.956Z,100.00
2023-02-01T18:06:44.772Z,100.00
2023-02-01T18:09:15.416Z,100.00
2023-02-01T18:11:42.385Z,100.00
2023-02-01T18:14:15.435Z,100.00
2023-02-01T18:16:42.818Z,100.00
2023-02-01T18:19:10.212Z,100.00
2023-02-01T18:21:40.707Z,100.00
2023-02-01T18:24:14.768Z,100.00
2023-02-01T18:26:45.469Z,100.00
2023-02-01T18:29:12.521Z,100.00
2023-02-01T18:31:51.514Z,100.00
2023-02-01T18:34:23.382Z,100.00
2023-02-01T18:36:51.816Z,100.00
2023-02-01T18:39:22.372Z,99.95
2023-02-01T18:41:51.281Z,99.95
2023-02-01T18:44:26.128Z,99.93
2023-02-01T18:46:56.452Z,100.00
2023-02-01T18:49:23.634Z,99.91
2023-02-01T18:51:52.662Z,99.96
2023-02-01T18:54:24.430Z,99.90
2023-02-01T18:56:54.600Z,99.90
2023-02-01T18:59:21.860Z,99.83
2023-02-01T19:01:49.843Z,99.77
2023-02-01T19:04:24.416Z,99.71
2023-02-01T19:06:53.507Z,99.67
2023-02-01T19:09:23.267Z,99.52
2023-02-01T19:11:51.117Z,99.66
2023-02-01T19:14:18.225Z,99.74
2023-02-01T19:16:48.509Z,99.49
2023-02-01T19:19:18.763Z,99.29
2023-02-01T19:21:47.143Z,99.39
2023-02-01T19:24:15.235Z,99.28
2023-02-01T19:26:47.828Z,99.20
2023-02-01T19:29:16.528Z,99.17
2023-02-01T19:31:47.499Z,99.28
2023-02-01T19:34:21.353Z,99.31
2023-02-01T19:36:58.616Z,99.29
2023-02-01T19:39:26.127Z,99.09
2023-02-01T19:41:53.797Z,99.39
2023-02-01T19:44:22.205Z,99.09
2023-02-01T19:46:51.422Z,99.05
2023-02-01T19:49:19.902Z,98.68
2023-02-01T19:51:49.593Z,98.69
2023-02-01T19:54:18.970Z,98.63
2023-02-01T19:56:50.934Z,98.55
2023-02-01T19:59:19.029Z,98.47
2023-02-01T20:01:54.252Z,98.50
2023-02-01T20:04:25.933Z,98.32
2023-02-01T20:06:55.604Z,98.13
2023-02-01T20:09:24.472Z,97.99
2023-02-01T20:11:54.615Z,97.86
2023-02-01T20:14:26.863Z,97.68
2023-02-01T20:16:54.000Z,97.71
2023-02-01T20:19:22.809Z,97.73
2023-02-01T20:21:51.831Z,97.46
2023-02-01T20:24:24.014Z,97.63
2023-02-01T20:26:53.741Z,97.47
2023-02-01T20:29:23.673Z,97.58
2023-02-01T20:31:51.020Z,97.46
2023-02-01T20:34:20.679Z,97.52
2023-02-01T20:36:49.259Z,97.35
2023-02-01T20:39:17.951Z,97.47
2023-02-01T20:41:45.398Z,97.24
2023-02-01T20:44:12.451Z,97.53
2023-02-01T20:46:41.920Z,97.32
2023-02-01T20:49:10.194Z,97.44
2023-02-01T20:51:42.339Z,97.33
2023-02-01T20:54:18.067Z,97.27
2023-02-01T20:56:46.536Z,97.44
2023-02-01T20:59:16.592Z,97.16
2023-02-01T21:02:06.793Z,97.33
2023-02-01T21:04:38.101Z,97.23
2023-02-01T21:07:05.908Z,96.95
2023-02-01T21:09:33.446Z,96.96
2023-02-01T21:12:10.062Z,97.05
2023-02-01T21:14:38.062Z,97.15
2023-02-01T21:17:06.913Z,97.06
2023-02-01T21:19:43.099Z,96.96
2023-02-01T21:22:11.403Z,97.20
2023-02-01T21:24:41.215Z,97.01
2023-02-01T21:27:08.947Z,97.10
2023-02-01T21:29:41.770Z,96.95
2023-02-01T21:32:09.645Z,96.82
2023-02-01T21:34:36.787Z,96.74
2023-02-01T21:37:05.465Z,96.49
2023-02-01T21:39:32.539Z,96.26
2023-02-01T21:42:17.728Z,96.41
2023-02-01T21:44:48.139Z,96.35
2023-02-01T21:47:18.161Z,96.24
2023-02-01T21:49:45.901Z,96.22
2023-02-01T21:52:14.753Z,96.03
2023-02-01T21:54:43.108Z,96.08
2023-02-01T21:57:12.219Z,96.04
2023-02-01T21:59:40.578Z,95.82
2023-02-01T22:02:14.613Z,96.04
2023-02-01T22:04:42.642Z,96.30
2023-02-01T22:07:10.292Z,96.21
2023-02-01T22:09:37.518Z,96.06
2023-02-01T22:12:06.876Z,96.03
2023-02-01T22:14:34.758Z,95.90
2023-02-01T22:17:02.699Z,95.62
2023-02-01T22:19:31.753Z,95.74
2023-02-01T22:21:59.461Z,95.95
2023-02-01T22:24:26.696Z,95.66
2023-02-01T22:26:54.868Z,95.55
2023-02-01T22:29:23.277Z,95.62
2023-02-01T22:31:52.443Z,95.49
2023-02-01T22:34:21.735Z,95.38
2023-02-01T22:36:49.077Z,95.51
2023-02-01T22:39:17.312Z,95.57
2023-02-01T22:41:45.128Z,95.64
2023-02-01T22:44:12.205Z,95.49
2023-02-01T22:46:40.873Z,95.79
2023-02-01T22:49:07.804Z,95.32
2023-02-01T22:51:36.191Z,95.33
2023-02-01T22:54:05.754Z,95.46
2023-02-01T22:56:36.352Z,95.39
2023-02-01T22:59:05.210Z,95.39
2023-02-01T23:01:33.467Z,95.21
2023-02-01T23:04:02.862Z,95.17
2023-02-01T23:06:31.754Z,95.16
2023-02-01T23:09:05.599Z,95.30
2023-02-01T23:11:34.140Z,94.99
2023-02-01T23:14:01.560Z,95.00
2023-02-01T23:16:28.765Z,95.08
2023-02-01T23:18:56.290Z,94.80
2023-02-01T23:21:23.452Z,94.97
2023-02-01T23:23:58.095Z,94.99
2023-02-01T23:26:26.740Z,94.81
2023-02-01T23:28:55.909Z,94.56
2023-02-01T23:31:24.588Z,94.98
2023-02-01T23:33:56.121Z,94.80
2023-02-01T23:36:24.081Z,94.81
2023-02-01T23:38:51.366Z,94.70
2023-02-01T23:41:19.297Z,94.73
2023-02-01T23:43:58.631Z,94.71
2023-02-01T23:46:35.691Z,94.63
2023-02-01T23:49:04.398Z,94.47
2023-02-01T23:51:33.284Z,94.41
2023-02-01T23:57:37.745Z,94.63
